Time;durP1;ratioP1;P1;durP2;ratioP2;P2;SDS_P1;SDS_P2;PMS_P1;PMS_P2;Temp;Humidity;BMP_temperature;BMP_pressure;BME280_temperature;BME280_humidity;BME280_pressure;Samples;Min_cycle;Max_cycle;Signal;HPM_P1;HPM_P2
2023/07/09 00:01:50;;;;;;;2.07;1.97;;;19.00;99.90;;;;;;5023246;28;20318;-54
2023/07/09 00:04:19;;;;;;;4.03;2.20;;;19.00;99.90;;;;;;5009394;28;20243;-54
2023/07/09 00:06:45;;;;;;;4.07;2.20;;;19.00;99.90;;;;;;5021499;28;20204;-54
2023/07/09 00:09:14;;;;;;;2.13;1.93;;;19.00;99.90;;;;;;5008211;28;20208;-55
2023/07/09 00:11:42;;;;;;;5.53;1.97;;;19.10;99.90;;;;;;5025279;28;20759;-53
2023/07/09 00:14:10;;;;;;;5.07;2.03;;;19.10;99.90;;;;;;5021620;28;20294;-55
2023/07/09 00:16:40;;;;;;;2.13;1.70;;;19.10;99.90;;;;;;5014752;28;20252;-50
2023/07/09 00:19:16;;;;;;;4.03;2.20;;;19.10;99.90;;;;;;5015652;28;20203;-56
2023/07/09 00:21:44;;;;;;;3.17;2.00;;;19.10;99.90;;;;;;5022813;28;20278;-54
2023/07/09 00:24:12;;;;;;;3.10;1.93;;;19.00;99.90;;;;;;5008463;28;20220;-57
2023/07/09 00:26:40;;;;;;;4.07;1.83;;;19.00;99.90;;;;;;5015036;28;20192;-57
2023/07/09 00:29:09;;;;;;;3.30;2.10;;;19.00;99.90;;;;;;5016279;28;21042;-56
2023/07/09 00:31:38;;;;;;;1.90;1.77;;;19.10;99.90;;;;;;5021293;28;20253;-55
2023/07/09 00:34:05;;;;;;;2.53;2.00;;;19.00;99.90;;;;;;5016270;28;20239;-55
2023/07/09 00:36:32;;;;;;;1.67;1.53;;;19.00;99.90;;;;;;5018262;28;20212;-55
2023/07/09 00:39:04;;;;;;;1.90;1.80;;;19.00;99.90;;;;;;5018704;28;20253;-54
2023/07/09 00:41:34;;;;;;;3.43;1.87;;;19.00;99.90;;;;;;4994072;28;20203;-55
2023/07/09 00:44:24;;;;;;;2.17;1.63;;;19.00;99.90;;;;;;5017183;28;20218;-57
2023/07/09 00:47:27;;;;;;;2.67;1.77;;;19.00;99.90;;;;;;5022635;28;20192;-52
2023/07/09 00:50:09;;;;;;;2.20;1.90;;;19.00;99.90;;;;;;5014083;28;20665;-53
2023/07/09 00:52:40;;;;;;;2.87;2.00;;;18.90;99.90;;;;;;5014863;28;20274;-52
2023/07/09 00:55:14;;;;;;;2.60;1.63;;;19.00;99.90;;;;;;5022596;28;20227;-56
2023/07/09 00:57:43;;;;;;;1.93;1.80;;;18.90;99.90;;;;;;5003385;28;20585;-55
2023/07/09 01:00:14;;;;;;;3.23;1.77;;;18.90;99.90;;;;;;5025261;28;20196;-57
2023/07/09 01:02:46;;;;;;;3.07;1.80;;;18.90;99.90;;;;;;5025480;28;20254;-52
2023/07/09 01:05:17;;;;;;;2.17;1.77;;;18.90;99.90;;;;;;5007330;28;20230;-58
2023/07/09 01:07:45;;;;;;;6.13;1.80;;;18.80;99.90;;;;;;5018117;28;20714;-56
2023/07/09 01:10:13;;;;;;;2.37;1.83;;;18.80;99.90;;;;;;5018727;28;20212;-58
2023/07/09 01:12:41;;;;;;;2.53;1.73;;;18.80;99.90;;;;;;5003814;28;20207;-56
2023/07/09 01:15:11;;;;;;;2.03;1.93;;;18.80;99.90;;;;;;5036557;28;20886;-55
2023/07/09 01:17:38;;;;;;;3.77;2.00;;;18.80;99.90;;;;;;5020376;28;20990;-55
2023/07/09 01:20:09;;;;;;;3.00;1.60;;;18.70;99.90;;;;;;5018191;28;20200;-57
2023/07/09 01:22:37;;;;;;;4.63;2.17;;;18.70;99.90;;;;;;5023452;28;20184;-50
2023/07/09 01:25:07;;;;;;;2.70;1.80;;;18.70;99.90;;;;;;5025624;28;20211;-57
2023/07/09 01:27:37;;;;;;;3.60;2.20;;;18.60;99.90;;;;;;4998164;28;20254;-53
2023/07/09 01:30:06;;;;;;;2.00;1.80;;;;;;;;;;5024352;28;20223;-58
2023/07/09 01:32:33;;;;;;;3.27;1.83;;;18.60;99.90;;;;;;5022562;28;20188;-55
2023/07/09 01:35:04;;;;;;;2.33;2.00;;;18.50;99.90;;;;;;5025658;28;20567;-57
2023/07/09 01:37:32;;;;;;;2.17;1.97;;;18.50;99.90;;;;;;5017477;28;20215;-56
2023/07/09 01:40:01;;;;;;;2.60;1.80;;;18.50;99.90;;;;;;5019039;28;20703;-56
2023/07/09 01:42:28;;;;;;;2.83;2.00;;;18.40;99.90;;;;;;5021511;28;20188;-50
2023/07/09 01:44:56;;;;;;;3.20;1.93;;;18.40;99.90;;;;;;5005286;28;20222;-54
2023/07/09 01:47:24;;;;;;;2.20;2.00;;;18.40;99.90;;;;;;5021950;28;20215;-56
2023/07/09 01:49:56;;;;;;;2.10;2.00;;;18.40;99.90;;;;;;5023257;28;20200;-52
2023/07/09 01:52:27;;;;;;;1.67;1.57;;;18.40;99.90;;;;;;5009577;28;20287;-52
2023/07/09 01:54:55;;;;;;;1.87;1.73;;;18.30;99.90;;;;;;5023785;28;20298;-53
2023/07/09 01:57:24;;;;;;;1.70;1.60;;;18.30;99.90;;;;;;5020738;28;20274;-54
2023/07/09 01:59:52;;;;;;;1.97;1.63;;;18.20;99.90;;;;;;5003856;28;20212;-52
2023/07/09 02:02:19;;;;;;;2.03;1.70;;;18.20;99.90;;;;;;5019866;28;20192;-58
2023/07/09 02:04:48;;;;;;;3.73;2.10;;;18.20;99.90;;;;;;5019111;28;20294;-51
2023/07/09 02:07:16;;;;;;;2.40;1.73;;;18.20;99.90;;;;;;5013811;28;20679;-57
2023/07/09 02:09:43;;;;;;;2.43;1.97;;;18.20;99.90;;;;;;5023918;28;20197;-48
2023/07/09 02:12:11;;;;;;;2.70;1.87;;;18.10;99.90;;;;;;5022969;28;20698;-57
2023/07/09 02:14:40;;;;;;;4.03;1.90;;;18.10;99.90;;;;;;5021225;28;20846;-54
2023/07/09 02:17:09;;;;;;;2.93;2.10;;;18.10;99.90;;;;;;4998728;28;20635;-58
2023/07/09 02:19:36;;;;;;;2.53;2.33;;;18.10;99.90;;;;;;5023541;28;20188;-50
2023/07/09 02:22:03;;;;;;;1.77;1.67;;;18.10;99.90;;;;;;5017208;28;20209;-58
2023/07/09 02:24:30;;;;;;;2.10;1.80;;;18.00;99.90;;;;;;5022720;28;20215;-53
2023/07/09 02:26:58;;;;;;;3.87;1.77;;;18.00;99.90;;;;;;5022118;28;20250;-54
2023/07/09 02:29:26;;;;;;;2.37;1.90;;;18.00;99.90;;;;;;5019112;28;20274;-51
2023/07/09 02:31:57;;;;;;;3.50;2.03;;;17.90;99.90;;;;;;5003800;28;20208;-58
2023/07/09 02:34:25;;;;;;;2.13;1.73;;;17.90;99.90;;;;;;5021150;28;20212;-56
2023/07/09 02:36:52;;;;;;;2.67;2.00;;;17.80;99.90;;;;;;5012332;28;20633;-56
2023/07/09 02:39:20;;;;;;;2.43;2.23;;;17.80;99.90;;;;;;5010468;28;20196;-57
2023/07/09 02:41:47;;;;;;;2.07;1.80;;;17.80;99.90;;;;;;5019097;28;20200;-52
2023/07/09 02:44:15;;;;;;;2.40;1.97;;;17.80;99.90;;;;;;5019764;28;20220;-58
2023/07/09 02:46:42;;;;;;;2.57;1.93;;;17.80;99.90;;;;;;5023811;28;20201;-51
2023/07/09 02:49:12;;;;;;;1.90;1.80;;;17.80;99.90;;;;;;4999386;28;20200;-58
2023/07/09 02:51:39;;;;;;;2.53;2.20;;;17.80;99.90;;;;;;5013212;28;20231;-54
2023/07/09 02:54:07;;;;;;;2.17;1.97;;;17.80;99.90;;;;;;5016842;28;20318;-55
2023/07/09 02:56:34;;;;;;;2.40;2.20;;;17.80;99.90;;;;;;5022665;28;20211;-56
2023/07/09 02:59:01;;;;;;;3.20;2.27;;;17.80;99.90;;;;;;5024784;28;20195;-56
2023/07/09 03:01:28;;;;;;;2.67;1.93;;;17.70;99.90;;;;;;5020168;28;20219;-54
2023/07/09 03:03:55;;;;;;;2.73;2.20;;;17.70;99.90;;;;;;4995678;28;20764;-55
2023/07/09 03:06:25;;;;;;;2.03;1.80;;;17.70;99.90;;;;;;5019601;28;20989;-55
2023/07/09 03:08:52;;;;;;;2.73;1.97;;;17.70;99.90;;;;;;5017067;28;20846;-53
2023/07/09 03:11:20;;;;;;;3.07;2.10;;;17.70;99.90;;;;;;5020708;28;20204;-56
2023/07/09 03:13:48;;;;;;;2.93;1.87;;;17.70;99.90;;;;;;5022828;28;20219;-55
2023/07/09 03:16:16;;;;;;;3.10;1.97;;;17.70;99.90;;;;;;5008833;28;20200;-55
2023/07/09 03:18:43;;;;;;;3.23;2.07;;;17.70;99.90;;;;;;5024176;28;20218;-52
2023/07/09 03:21:10;;;;;;;2.40;2.20;;;17.60;99.90;;;;;;5000140;28;20211;-57
2023/07/09 03:23:38;;;;;;;2.67;2.00;;;17.60;99.90;;;;;;5016443;28;20231;-50
2023/07/09 03:26:05;;;;;;;2.83;2.27;;;17.60;99.90;;;;;;5021360;28;20272;-54
2023/07/09 03:28:33;;;;;;;4.33;1.80;;;17.60;99.90;;;;;;5017672;28;20190;-52
2023/07/09 03:31:01;;;;;;;2.97;2.10;;;;;;;;;;5024683;28;20647;-53
2023/07/09 03:33:28;;;;;;;1.97;1.77;;;17.50;99.90;;;;;;5019205;28;20234;-50
2023/07/09 03:35:55;;;;;;;2.10;1.90;;;17.50;99.90;;;;;;5002719;28;20204;-53
2023/07/09 03:38:22;;;;;;;2.73;2.23;;;17.50;99.90;;;;;;5014804;28;20278;-54
2023/07/09 03:40:53;;;;;;;2.30;2.10;;;17.50;99.90;;;;;;5014790;28;20279;-53
2023/07/09 03:43:20;;;;;;;2.63;1.97;;;17.50;99.90;;;;;;5018979;28;20227;-51
2023/07/09 03:45:48;;;;;;;2.10;2.00;;;17.50;99.90;;;;;;5024062;28;20646;-53
2023/07/09 03:48:17;;;;;;;1.83;1.73;;;17.50;99.90;;;;;;5020740;28;20192;-58
2023/07/09 03:50:46;;;;;;;2.00;1.80;;;17.60;99.90;;;;;;4998985;28;20273;-53
2023/07/09 03:53:13;;;;;;;2.10;1.90;;;17.60;99.90;;;;;;5018358;28;20196;-53
2023/07/09 03:55:40;;;;;;;2.57;1.90;;;17.50;99.90;;;;;;5015094;28;20692;-55
2023/07/09 03:58:11;;;;;;;2.30;2.10;;;17.50;99.90;;;;;;5022304;28;20239;-57
2023/07/09 04:00:37;;;;;;;2.87;1.97;;;17.60;99.90;;;;;;5022354;28;20184;-53
2023/07/09 04:03:04;;;;;;;2.10;1.90;;;17.60;99.90;;;;;;5017317;28;20203;-57
2023/07/09 04:05:31;;;;;;;1.93;1.80;;;17.60;99.90;;;;;;5020221;28;20844;-51
2023/07/09 04:07:58;;;;;;;1.70;1.60;;;17.60;99.90;;;;;;5001453;28;20223;-52
2023/07/09 04:10:25;;;;;;;2.47;1.90;;;17.60;99.90;;;;;;5019575;28;20943;-50
2023/07/09 04:12:52;;;;;;;2.53;2.30;;;17.60;99.90;;;;;;5017521;28;20203;-54
2023/07/09 04:15:20;;;;;;;3.27;2.17;;;17.50;99.90;;;;;;5012802;28;20215;-54
2023/07/09 04:17:47;;;;;;;3.60;2.27;;;17.50;99.90;;;;;;5023017;28;20220;-53
2023/07/09 04:20:14;;;;;;;2.83;2.13;;;17.50;99.90;;;;;;5020628;28;20196;-56
2023/07/09 04:22:41;;;;;;;2.10;2.00;;;17.50;99.90;;;;;;5001033;28;20670;-53
2023/07/09 04:25:10;;;;;;;2.37;1.90;;;17.60;99.90;;;;;;5021610;28;20228;-54
2023/07/09 04:27:38;;;;;;;2.43;2.00;;;17.60;99.90;;;;;;5008695;28;20184;-52
2023/07/09 04:30:06;;;;;;;2.50;1.90;;;17.50;99.90;;;;;;5022552;28;20868;-56
2023/07/09 04:32:34;;;;;;;2.70;2.23;;;17.50;99.90;;;;;;5021094;28;20199;-48
2023/07/09 04:35:01;;;;;;;2.70;2.50;;;17.50;99.90;;;;;;5022349;28;20277;-55
2023/07/09 04:37:27;;;;;;;4.17;2.13;;;17.40;99.90;;;;;;4997209;28;20259;-53
2023/07/09 04:39:54;;;;;;;2.33;2.13;;;17.50;99.90;;;;;;5017947;28;20250;-51
2023/07/09 04:42:21;;;;;;;2.17;1.90;;;17.40;99.90;;;;;;5012725;28;20204;-56
2023/07/09 04:44:48;;;;;;;2.23;2.03;;;17.40;99.90;;;;;;5023058;28;20632;-52
2023/07/09 04:47:15;;;;;;;4.03;2.10;;;17.40;99.90;;;;;;5019618;28;20220;-56
2023/07/09 04:49:44;;;;;;;3.53;2.20;;;17.40;99.90;;;;;;5020472;28;20231;-56
2023/07/09 04:52:11;;;;;;;2.63;2.13;;;17.40;99.90;;;;;;5005286;28;20200;-58
2023/07/09 04:54:43;;;;;;;2.50;2.30;;;17.40;99.90;;;;;;5013738;28;20301;-55
2023/07/09 04:57:10;;;;;;;2.30;2.10;;;17.40;99.90;;;;;;5021230;28;20199;-58
2023/07/09 04:59:37;;;;;;;2.20;1.90;;;17.40;99.90;;;;;;5015241;28;20937;-51
2023/07/09 05:02:05;;;;;;;3.40;2.47;;;17.50;99.90;;;;;;5018851;28;20200;-57
2023/07/09 05:04:32;;;;;;;3.07;2.57;;;17.50;99.90;;;;;;5017642;28;20227;-52
2023/07/09 05:07:00;;;;;;;4.80;2.37;;;17.50;99.90;;;;;;5021760;28;20274;-54
2023/07/09 05:09:27;;;;;;;2.50;2.20;;;17.50;99.90;;;;;;4997939;28;20227;-50
2023/07/09 05:11:53;;;;;;;2.47;2.23;;;17.50;99.90;;;;;;5020629;28;20204;-55
2023/07/09 05:14:20;;;;;;;2.77;2.20;;;17.50;99.90;;;;;;5008106;28;21085;-55
2023/07/09 05:16:47;;;;;;;2.83;2.63;;;17.60;99.90;;;;;;5020587;28;20200;-50
2023/07/09 05:19:14;;;;;;;3.60;2.30;;;17.60;99.90;;;;;;5020006;28;20284;-57
2023/07/09 05:21:41;;;;;;;4.30;2.60;;;17.60;99.90;;;;;;5022314;28;20216;-54
2023/07/09 05:24:09;;;;;;;4.20;2.10;;;17.70;99.90;;;;;;4999995;28;20287;-56
2023/07/09 05:26:36;;;;;;;3.67;2.57;;;17.80;99.90;;;;;;5015456;28;20200;-55
2023/07/09 05:29:04;;;;;;;3.07;2.33;;;17.90;99.90;;;;;;5021280;28;20223;-56
2023/07/09 05:31:32;;;;;;;4.50;2.40;;;18.10;99.90;;;;;;5013656;28;20208;-54
2023/07/09 05:34:00;;;;;;;4.13;2.53;;;18.20;99.90;;;;;;5022598;28;20216;-51
2023/07/09 05:36:27;;;;;;;2.27;1.87;;;18.30;99.90;;;;;;5018306;28;20969;-49
2023/07/09 05:38:55;;;;;;;2.63;2.30;;;18.40;99.90;;;;;;5015335;28;20270;-53
2023/07/09 05:41:23;;;;;;;3.07;2.43;;;18.50;99.90;;;;;;5001247;28;20211;-50
2023/07/09 05:43:51;;;;;;;2.23;2.10;;;18.60;99.90;;;;;;5026366;28;20699;-49
2023/07/09 05:46:18;;;;;;;2.57;2.37;;;18.70;99.90;;;;;;5015901;28;20273;-56
2023/07/09 05:48:45;;;;;;;2.57;2.37;;;18.80;99.90;;;;;;5022910;28;20651;-51
2023/07/09 05:51:12;;;;;;;6.33;2.47;;;18.90;99.90;;;;;;5018112;28;20196;-56
2023/07/09 05:53:39;;;;;;;3.03;2.53;;;19.00;99.90;;;;;;5024586;28;20231;-51
2023/07/09 05:56:06;;;;;;;2.13;1.93;;;19.10;99.90;;;;;;5003779;28;20196;-57
2023/07/09 05:58:35;;;;;;;2.27;2.07;;;19.10;99.90;;;;;;5021087;28;20418;-53
2023/07/09 06:01:02;;;;;;;2.30;2.10;;;19.30;99.90;;;;;;5020428;28;20277;-56
2023/07/09 06:03:30;;;;;;;2.40;2.20;;;19.40;99.90;;;;;;5011638;28;20224;-50
2023/07/09 06:05:58;;;;;;;2.87;2.33;;;19.50;99.90;;;;;;5024120;28;20203;-52
2023/07/09 06:08:26;;;;;;;3.17;2.60;;;19.70;99.90;;;;;;5016583;28;20815;-50
2023/07/09 06:10:57;;;;;;;3.07;2.53;;;19.70;99.90;;;;;;4995807;28;20219;-51
2023/07/09 06:13:25;;;;;;;3.03;2.37;;;19.80;99.90;;;;;;5017064;28;20941;-56
2023/07/09 06:15:55;;;;;;;3.03;2.60;;;19.90;99.90;;;;;;5014933;28;20663;-53
2023/07/09 06:18:23;;;;;;;2.50;2.30;;;20.00;99.90;;;;;;4999360;28;20631;-56
2023/07/09 06:20:51;;;;;;;2.90;2.40;;;20.10;99.90;;;;;;5017527;28;20266;-49
2023/07/09 06:23:19;;;;;;;2.47;2.10;;;20.20;99.90;;;;;;5019857;28;20734;-56
2023/07/09 06:25:47;;;;;;;2.50;2.30;;;20.30;99.90;;;;;;4993326;28;20192;-55
2023/07/09 06:28:15;;;;;;;3.87;2.47;;;20.40;99.90;;;;;;5017770;28;20275;-55
2023/07/09 06:30:42;;;;;;;2.73;2.00;;;20.50;99.90;;;;;;5012206;28;21691;-48
2023/07/09 06:33:11;;;;;;;3.80;2.40;;;20.60;99.90;;;;;;5017369;28;20282;-51
2023/07/09 06:35:39;;;;;;;2.80;2.60;;;20.70;99.90;;;;;;5019926;28;20195;-55
2023/07/09 06:38:06;;;;;;;2.60;2.40;;;20.80;99.90;;;;;;5018586;28;20220;-55
2023/07/09 06:40:32;;;;;;;2.97;2.67;;;20.90;99.90;;;;;;4993312;28;20220;-56
2023/07/09 06:42:59;;;;;;;4.27;2.43;;;21.00;99.90;;;;;;5023559;28;20212;-53
2023/07/09 06:45:33;;;;;;;3.23;2.57;;;21.10;99.90;;;;;;5014044;28;20196;-56
2023/07/09 06:48:00;;;;;;;2.80;2.60;;;21.20;99.80;;;;;;5016498;28;20188;-56
2023/07/09 06:50:29;;;;;;;3.67;2.50;;;21.30;99.60;;;;;;5011886;28;20216;-53
2023/07/09 06:52:55;;;;;;;3.67;2.93;;;21.40;99.30;;;;;;5020852;28;20204;-51
2023/07/09 06:55:23;;;;;;;3.33;2.37;;;21.40;99.10;;;;;;5006016;28;20278;-56
2023/07/09 06:57:50;;;;;;;4.10;2.83;;;21.50;98.90;;;;;;5001852;28;20587;-53
2023/07/09 07:00:17;;;;;;;5.30;2.70;;;21.70;98.70;;;;;;5021994;28;20273;-51
2023/07/09 07:02:44;;;;;;;5.47;2.50;;;21.70;98.80;;;;;;5007131;28;20258;-47
2023/07/09 07:05:11;;;;;;;3.53;2.30;;;21.80;99.10;;;;;;5025038;28;20623;-52
2023/07/09 07:07:39;;;;;;;2.57;2.37;;;21.90;98.80;;;;;;5020655;28;20199;-53
2023/07/09 07:10:06;;;;;;;2.63;2.43;;;21.90;98.60;;;;;;5024372;28;20212;-54
2023/07/09 07:12:43;;;;;;;2.47;2.27;;;22.00;98.10;;;;;;4991959;28;20228;-53
2023/07/09 07:15:11;;;;;;;3.23;2.93;;;22.20;98.00;;;;;;5014010;28;20722;-54
2023/07/09 07:17:38;;;;;;;3.63;3.17;;;22.20;97.80;;;;;;5013560;28;20208;-54
2023/07/09 07:20:06;;;;;;;3.63;2.70;;;22.30;98.10;;;;;;5024839;28;20231;-56
2023/07/09 07:22:33;;;;;;;3.10;2.90;;;22.30;98.60;;;;;;5010012;28;20204;-53
2023/07/09 07:25:01;;;;;;;3.10;2.60;;;22.30;98.60;;;;;;5016920;28;20823;-55
2023/07/09 07:27:28;;;;;;;2.90;2.70;;;22.40;98.50;;;;;;4992608;28;20286;-53
2023/07/09 07:29:55;;;;;;;3.13;2.88;;;22.50;98.30;;;;;;5021326;28;20197;-54
2023/07/09 07:32:22;;;;;;;3.03;2.50;;;22.60;98.50;;;;;;5022652;28;20195;-55
2023/07/09 07:34:49;;;;;;;3.50;3.10;;;22.70;98.20;;;;;;5016758;28;20712;-56
2023/07/09 07:37:15;;;;;;;5.53;2.70;;;22.80;98.30;;;;;;5016721;28;20196;-53
2023/07/09 07:39:43;;;;;;;3.40;2.40;;;22.80;98.10;;;;;;5020853;28;20212;-50
2023/07/09 07:42:11;;;;;;;3.35;3.15;;;22.80;98.10;;;;;;5012707;28;20261;-51
2023/07/09 07:44:38;;;;;;;2.60;2.40;;;22.90;98.20;;;;;;4998484;28;20289;-51
2023/07/09 07:47:06;;;;;;;3.38;3.08;;;23.00;98.20;;;;;;5011714;28;20200;-51
2023/07/09 07:49:33;;;;;;;3.10;2.78;;;23.10;98.00;;;;;;5011373;28;20200;-53
2023/07/09 07:52:03;;;;;;;3.30;2.88;;;23.20;97.90;;;;;;5019477;28;20192;-54
2023/07/09 07:54:31;;;;;;;4.18;2.92;;;23.30;97.80;;;;;;5015443;28;20569;-53
2023/07/09 07:56:58;;;;;;;3.10;2.80;;;23.40;98.10;;;;;;5011375;28;20208;-49
2023/07/09 07:59:26;;;;;;;3.92;2.78;;;23.40;98.00;;;;;;5004046;28;20363;-55
2023/07/09 08:01:53;;;;;;;2.83;2.63;;;23.50;97.60;;;;;;5010585;28;20220;-50
2023/07/09 08:04:20;;;;;;;3.40;3.10;;;;;;;;;;5016676;28;20724;-50
2023/07/09 08:06:47;;;;;;;3.47;3.17;;;;;;;;;;5011033;28;20246;-56
2023/07/09 08:09:14;;;;;;;3.05;2.75;;;23.70;97.00;;;;;;5020391;28;20666;-51
2023/07/09 08:11:41;;;;;;;3.17;2.88;;;23.70;97.80;;;;;;5014810;28;20261;-56
2023/07/09 08:14:08;;;;;;;3.20;2.75;;;23.80;97.10;;;;;;5007528;28;20240;-52
2023/07/09 08:16:36;;;;;;;3.22;2.85;;;23.90;96.40;;;;;;5001063;28;20236;-55
2023/07/09 08:19:03;;;;;;;3.30;2.97;;;24.00;96.30;;;;;;5017140;28;20858;-53
2023/07/09 08:21:30;;;;;;;3.30;3.00;;;24.10;96.60;;;;;;5016869;28;20232;-55
2023/07/09 08:23:57;;;;;;;3.55;3.25;;;24.10;96.80;;;;;;5006409;28;20224;-54
2023/07/09 08:26:24;;;;;;;5.22;3.30;;;24.20;97.80;;;;;;5019992;28;20199;-51
2023/07/09 08:28:51;;;;;;;3.58;3.28;;;24.30;97.30;;;;;;5010340;28;20184;-52
2023/07/09 08:31:18;;;;;;;3.08;2.78;;;24.40;96.80;;;;;;5000208;28;20200;-52
2023/07/09 08:33:47;;;;;;;3.60;3.30;;;24.40;96.20;;;;;;5018359;28;20216;-54
2023/07/09 08:36:13;;;;;;;2.92;2.72;;;24.50;95.80;;;;;;5014050;28;20200;-54
2023/07/09 08:38:40;;;;;;;2.78;2.58;;;24.60;95.60;;;;;;5011364;28;20216;-53
2023/07/09 08:41:15;;;;;;;2.90;2.70;;;24.70;95.80;;;;;;5021620;28;20191;-52
2023/07/09 08:43:55;;;;;;;3.03;2.83;;;24.80;96.00;;;;;;5015944;28;20269;-55
2023/07/09 08:46:30;;;;;;;3.40;3.20;;;24.90;96.30;;;;;;4999365;28;20203;-53
2023/07/09 08:49:02;;;;;;;3.50;3.20;;;24.90;96.20;;;;;;5011932;28;20180;-50
2023/07/09 08:51:35;;;;;;;3.42;3.15;;;25.00;96.30;;;;;;5014850;28;20663;-49
2023/07/09 08:54:02;;;;;;;3.50;3.20;;;25.10;95.60;;;;;;5017189;28;20208;-53
2023/07/09 08:56:33;;;;;;;3.55;3.25;;;25.20;96.20;;;;;;5021084;28;20654;-52
2023/07/09 08:59:02;;;;;;;7.20;2.80;;;25.20;95.40;;;;;;5016498;28;20274;-54
2023/07/09 09:01:34;;;;;;;3.35;3.00;;;25.40;94.80;;;;;;5000086;28;20208;-51
2023/07/09 09:04:09;;;;;;;4.45;3.30;;;25.50;95.40;;;;;;5012364;28;20211;-54
2023/07/09 09:06:35;;;;;;;3.47;3.20;;;25.50;98.00;;;;;;5017714;28;20204;-55
2023/07/09 09:09:13;;;;;;;4.07;3.67;;;25.60;99.90;;;;;;5017975;28;20188;-50
2023/07/09 09:11:45;;;;;;;3.83;3.33;;;25.70;99.90;;;;;;5016509;28;20208;-56
2023/07/09 09:14:24;;;;;;;5.00;3.13;;;25.80;99.90;;;;;;5014495;28;20330;-53
2023/07/09 09:16:53;;;;;;;3.03;2.83;;;25.70;99.90;;;;;;5015927;28;20937;-53
2023/07/09 09:19:24;;;;;;;3.63;3.25;;;25.90;99.90;;;;;;5004851;28;20223;-50
2023/07/09 09:21:56;;;;;;;3.33;3.03;;;26.00;99.90;;;;;;5021488;28;20192;-54
2023/07/09 09:24:31;;;;;;;7.95;3.47;;;26.20;99.90;;;;;;5014965;28;20680;-54
2023/07/09 09:26:59;;;;;;;4.72;3.40;;;26.30;99.90;;;;;;5025107;28;20203;-51
2023/07/09 09:29:27;;;;;;;26.33;9.07;;;26.30;99.90;;;;;;5041952;28;20633;-51
2023/07/09 09:31:56;;;;;;;7.07;5.07;;;26.30;99.90;;;;;;5036219;28;20200;-53
2023/07/09 09:34:28;;;;;;;14.95;5.53;;;26.30;99.90;;;;;;5022800;28;20725;-51
2023/07/09 09:36:56;;;;;;;3.95;3.47;;;26.40;99.90;;;;;;5047824;28;20196;-56
2023/07/09 09:39:25;;;;;;;3.92;3.55;;;26.50;99.90;;;;;;5039705;28;20289;-54
2023/07/09 09:41:55;;;;;;;6.38;3.75;;;26.60;99.90;;;;;;5040291;28;20222;-57
2023/07/09 09:44:26;;;;;;;4.78;3.60;;;26.60;99.90;;;;;;5042301;28;20240;-56
2023/07/09 09:46:53;;;;;;;5.05;3.50;;;26.70;99.90;;;;;;5032751;28;20231;-58
2023/07/09 09:49:21;;;;;;;10.82;4.70;;;26.80;99.90;;;;;;5016036;28;20207;-53
2023/07/09 09:51:50;;;;;;;3.80;3.50;;;26.90;99.90;;;;;;5039780;28;20293;-56
2023/07/09 09:54:20;;;;;;;3.80;3.50;;;27.10;95.60;;;;;;5036354;28;20872;-53
2023/07/09 09:56:49;;;;;;;3.42;3.15;;;27.00;92.50;;;;;;5042423;28;20208;-58
2023/07/09 09:59:22;;;;;;;3.78;3.47;;;27.10;92.20;;;;;;5041807;28;20236;-53
2023/07/09 10:01:58;;;;;;;4.85;3.15;;;27.20;92.00;;;;;;5027048;28;20271;-56
2023/07/09 10:04:25;;;;;;;4.03;3.60;;;27.30;91.50;;;;;;5021828;28;20227;-55
2023/07/09 10:06:57;;;;;;;6.38;3.20;;;27.40;91.00;;;;;;5034811;28;20200;-58
2023/07/09 10:09:36;;;;;;;4.75;3.33;;;27.60;99.90;;;;;;5032037;28;20200;-58
2023/07/09 10:12:11;;;;;;;4.90;3.90;;;27.60;93.90;;;;;;5032521;28;20215;-53
2023/07/09 10:14:43;;;;;;;3.88;3.05;;;;;;;;;;5030399;28;20223;-54
2023/07/09 10:17:16;;;;;;;3.90;3.60;;;;;;;;;;5031556;28;20204;-57
2023/07/09 10:19:48;;;;;;;3.65;3.40;;;;;;;;;;5011350;28;20674;-50
2023/07/09 10:22:35;;;;;;;3.70;3.30;;;28.00;99.90;;;;;;5042593;28;20283;-59
2023/07/09 10:25:10;;;;;;;3.72;3.30;;;28.20;91.50;;;;;;5022441;28;20231;-53
2023/07/09 10:27:49;;;;;;;3.95;3.60;;;28.20;99.90;;;;;;5025810;28;20183;-51
2023/07/09 10:30:40;;;;;;;3.47;3.17;;;28.30;99.90;;;;;;5040867;28;20192;-59
2023/07/09 10:33:11;;;;;;;4.22;3.80;;;28.10;99.90;;;;;;5033695;28;20223;-56
2023/07/09 10:35:41;;;;;;;3.72;3.40;;;28.30;99.90;;;;;;5010347;28;20218;-50
2023/07/09 10:38:23;;;;;;;3.78;3.47;;;28.40;91.20;;;;;;5019736;28;20563;-59
2023/07/09 10:40:53;;;;;;;3.35;3.05;;;28.40;90.60;;;;;;5013301;28;20239;-59
2023/07/09 10:43:23;;;;;;;4.45;3.85;;;28.60;90.50;;;;;;5025308;28;20211;-59
2023/07/09 10:45:56;;;;;;;4.57;3.53;;;28.60;89.20;;;;;;5020993;28;20959;-58
2023/07/09 10:48:34;;;;;;;3.30;3.00;;;28.70;88.10;;;;;;5011897;28;20200;-57
2023/07/09 10:51:02;;;;;;;3.28;2.97;;;28.90;86.70;;;;;;5014065;28;20378;-59
2023/07/09 10:53:40;;;;;;;4.07;3.78;;;29.00;86.10;;;;;;5002260;28;20224;-53
2023/07/09 10:56:12;;;;;;;4.38;3.78;;;29.10;84.60;;;;;;5011836;28;20682;-59
2023/07/09 10:58:47;;;;;;;3.33;3.13;;;29.20;83.30;;;;;;5022362;28;20724;-54
2023/07/09 11:01:16;;;;;;;3.83;3.58;;;29.20;84.30;;;;;;5019210;28;20597;-60
2023/07/09 11:03:48;;;;;;;3.75;3.40;;;29.30;83.30;;;;;;5013959;28;20231;-54
2023/07/09 11:06:21;;;;;;;5.00;3.67;;;29.30;84.50;;;;;;5015405;28;20289;-57
2023/07/09 11:08:53;;;;;;;4.00;3.47;;;29.40;82.80;;;;;;4997916;28;20204;-58
2023/07/09 11:11:29;;;;;;;3.88;3.50;;;29.50;80.00;;;;;;5013609;28;20204;-56
2023/07/09 11:14:00;;;;;;;3.95;3.60;;;29.60;80.70;;;;;;5018838;28;20220;-60
2023/07/09 11:16:30;;;;;;;3.47;3.13;;;29.70;81.00;;;;;;5024201;28;20203;-55
2023/07/09 11:19:01;;;;;;;3.85;3.55;;;29.70;79.70;;;;;;5014483;28;20240;-59
2023/07/09 11:21:28;;;;;;;4.25;3.90;;;29.80;78.90;;;;;;5021399;28;20200;-49
2023/07/09 11:23:59;;;;;;;4.18;3.88;;;29.90;78.90;;;;;;4993939;28;20293;-54
2023/07/09 11:26:29;;;;;;;4.10;3.80;;;29.90;80.20;;;;;;5013354;28;20682;-53
2023/07/09 11:29:10;;;;;;;4.43;3.53;;;30.10;80.40;;;;;;5022507;28;20264;-58
2023/07/09 11:31:39;;;;;;;3.95;3.75;;;30.20;78.20;;;;;;5017182;28;21230;-52
2023/07/09 11:34:10;;;;;;;5.22;3.55;;;30.20;76.70;;;;;;5016390;28;20231;-59
2023/07/09 11:36:48;;;;;;;3.53;3.25;;;30.30;75.70;;;;;;5016458;28;20180;-54
2023/07/09 11:39:23;;;;;;;4.32;3.90;;;30.30;76.50;;;;;;5002279;28;20231;-60
2023/07/09 11:41:50;;;;;;;6.57;4.15;;;30.30;77.00;;;;;;5011210;28;20211;-59
2023/07/09 11:44:19;;;;;;;4.45;3.90;;;30.30;77.30;;;;;;5022587;28;20224;-58
2023/07/09 11:47:11;;;;;;;4.10;3.75;;;30.40;75.60;;;;;;5017820;28;20192;-57
2023/07/09 11:49:50;;;;;;;3.95;3.65;;;30.50;74.50;;;;;;5002290;28;20220;-54
2023/07/09 11:52:23;;;;;;;4.10;3.80;;;30.60;73.70;;;;;;5022269;28;20191;-59
2023/07/09 11:54:51;;;;;;;3.97;3.67;;;30.70;73.30;;;;;;4994058;28;20827;-60
2023/07/09 11:57:19;;;;;;;4.90;4.40;;;30.80;71.50;;;;;;5017566;28;20797;-60
2023/07/09 11:59:46;;;;;;;4.35;4.03;;;30.80;72.40;;;;;;5012374;28;20247;-54
2023/07/09 12:02:19;;;;;;;4.93;4.00;;;29.40;99.60;;;;;;5022119;28;20208;-59
2023/07/09 12:04:50;;;;;;;4.43;4.05;;;30.90;95.00;;;;;;5012919;28;20491;-55
2023/07/09 12:07:18;;;;;;;4.70;3.90;;;30.90;94.10;;;;;;5022976;28;20192;-59
2023/07/09 12:09:50;;;;;;;7.47;4.07;;;31.00;92.00;;;;;;4995297;28;20250;-56
2023/07/09 12:12:24;;;;;;;4.00;3.80;;;31.00;91.10;;;;;;5008148;28;20203;-59
2023/07/09 12:14:51;;;;;;;5.25;4.57;;;31.00;91.10;;;;;;5020086;28;20380;-60
2023/07/09 12:17:19;;;;;;;6.07;4.32;;;31.20;83.90;;;;;;5019877;28;20188;-56
2023/07/09 12:19:46;;;;;;;4.32;3.92;;;31.50;82.50;;;;;;5019710;28;20277;-56
2023/07/09 12:22:19;;;;;;;3.97;3.65;;;31.30;81.60;;;;;;5012864;28;20196;-58
2023/07/09 12:24:48;;;;;;;4.00;3.70;;;31.30;75.40;;;;;;4992560;28;20310;-56
2023/07/09 12:27:21;;;;;;;4.20;3.80;;;31.50;71.90;;;;;;5023150;28;20215;-57
2023/07/09 12:29:51;;;;;;;4.53;4.20;;;31.50;70.00;;;;;;5010940;28;20296;-58
2023/07/09 12:32:18;;;;;;;4.72;4.32;;;31.60;67.40;;;;;;5023237;28;20246;-58
2023/07/09 12:34:48;;;;;;;5.07;4.60;;;31.80;66.90;;;;;;5016378;28;20274;-53
2023/07/09 12:37:16;;;;;;;4.57;4.20;;;31.60;65.00;;;;;;5007872;28;20295;-58
2023/07/09 12:39:44;;;;;;;5.40;4.32;;;31.70;63.90;;;;;;5000233;28;20618;-50
2023/07/09 12:42:17;;;;;;;4.38;3.92;;;31.80;65.00;;;;;;5021004;28;20794;-58
2023/07/09 12:44:46;;;;;;;4.35;4.00;;;31.70;62.00;;;;;;5011350;28;20313;-52
2023/07/09 12:47:15;;;;;;;4.60;4.20;;;31.50;61.30;;;;;;5018636;28;20897;-55
2023/07/09 12:49:44;;;;;;;5.07;4.68;;;31.60;62.20;;;;;;5015619;28;20200;-52
2023/07/09 12:52:18;;;;;;;5.85;5.25;;;31.70;66.00;;;;;;5016008;28;20277;-55
2023/07/09 12:54:55;;;;;;;5.45;4.82;;;31.70;64.20;;;;;;5017584;28;20220;-50
2023/07/09 12:57:23;;;;;;;6.32;4.35;;;32.00;84.90;;;;;;5000872;28;20671;-58
2023/07/09 12:59:52;;;;;;;5.10;4.32;;;32.40;68.40;;;;;;5006626;28;20269;-53